sensor_id;sensor_type;location;lat;lon;timestamp;P1;durP1;ratioP1;P2;durP2;ratioP2
42098;SDS011;27758;55.900;8.516;2023-07-13T00:00:41;9.90;;;4.78;;
42098;SDS011;27758;55.900;8.516;2023-07-13T00:03:07;14.75;;;5.75;;
42098;SDS011;27758;55.900;8.516;2023-07-13T00:05:33;11.77;;;4.50;;
42098;SDS011;27758;55.900;8.516;2023-07-13T00:07:59;22.15;;;4.40;;
42098;SDS011;27758;55.900;8.516;2023-07-13T00:10:25;17.13;;;4.47;;
42098;SDS011;27758;55.900;8.516;2023-07-13T00:12:51;10.40;;;4.72;;
42098;SDS011;27758;55.900;8.516;2023-07-13T00:15:21;7.80;;;4.28;;
42098;SDS011;27758;55.900;8.516;2023-07-13T00:17:52;14.18;;;3.90;;
42098;SDS011;27758;55.900;8.516;2023-07-13T00:20:22;11.23;;;4.28;;
42098;SDS011;27758;55.900;8.516;2023-07-13T00:22:50;12.70;;;4.50;;
42098;SDS011;27758;55.900;8.516;2023-07-13T00:25:19;13.88;;;4.93;;
42098;SDS011;27758;55.900;8.516;2023-07-13T00:27:46;14.90;;;4.47;;
42098;SDS011;27758;55.900;8.516;2023-07-13T00:30:16;13.52;;;4.72;;
42098;SDS011;27758;55.900;8.516;2023-07-13T00:32:42;12.63;;;4.50;;
42098;SDS011;27758;55.900;8.516;2023-07-13T00:35:08;9.98;;;4.15;;
42098;SDS011;27758;55.900;8.516;2023-07-13T00:37:34;13.38;;;5.32;;
42098;SDS011;27758;55.900;8.516;2023-07-13T00:40:01;12.05;;;4.68;;
42098;SDS011;27758;55.900;8.516;2023-07-13T00:42:28;16.20;;;5.05;;
42098;SDS011;27758;55.900;8.516;2023-07-13T00:45:00;12.30;;;5.15;;
42098;SDS011;27758;55.900;8.516;2023-07-13T00:47:46;9.05;;;4.20;;
42098;SDS011;27758;55.900;8.516;2023-07-13T00:50:12;18.67;;;4.85;;
42098;SDS011;27758;55.900;8.516;2023-07-13T00:52:41;10.98;;;4.45;;
42098;SDS011;27758;55.900;8.516;2023-07-13T00:55:10;16.48;;;5.38;;
42098;SDS011;27758;55.900;8.516;2023-07-13T00:57:38;12.40;;;5.20;;
42098;SDS011;27758;55.900;8.516;2023-07-13T01:00:05;12.23;;;5.05;;
42098;SDS011;27758;55.900;8.516;2023-07-13T01:02:42;15.68;;;5.65;;
42098;SDS011;27758;55.900;8.516;2023-07-13T01:05:15;12.30;;;4.18;;
42098;SDS011;27758;55.900;8.516;2023-07-13T01:07:42;11.40;;;4.10;;
42098;SDS011;27758;55.900;8.516;2023-07-13T01:10:09;18.23;;;5.05;;
42098;SDS011;27758;55.900;8.516;2023-07-13T01:12:37;14.15;;;5.03;;
42098;SDS011;27758;55.900;8.516;2023-07-13T01:15:03;14.18;;;4.63;;
42098;SDS011;27758;55.900;8.516;2023-07-13T01:17:31;13.70;;;4.70;;
42098;SDS011;27758;55.900;8.516;2023-07-13T01:19:59;12.00;;;4.43;;
42098;SDS011;27758;55.900;8.516;2023-07-13T01:22:25;9.93;;;4.20;;
42098;SDS011;27758;55.900;8.516;2023-07-13T01:24:52;10.88;;;4.20;;
42098;SDS011;27758;55.900;8.516;2023-07-13T01:27:21;18.83;;;5.07;;
42098;SDS011;27758;55.900;8.516;2023-07-13T01:29:51;15.32;;;4.80;;
42098;SDS011;27758;55.900;8.516;2023-07-13T01:32:18;11.07;;;3.83;;
42098;SDS011;27758;55.900;8.516;2023-07-13T01:34:49;11.10;;;4.38;;
42098;SDS011;27758;55.900;8.516;2023-07-13T01:37:16;15.30;;;4.57;;
42098;SDS011;27758;55.900;8.516;2023-07-13T01:39:42;13.80;;;4.63;;
42098;SDS011;27758;55.900;8.516;2023-07-13T01:42:08;12.65;;;5.30;;
42098;SDS011;27758;55.900;8.516;2023-07-13T01:44:34;16.80;;;5.60;;
42098;SDS011;27758;55.900;8.516;2023-07-13T01:47:00;12.38;;;4.85;;
42098;SDS011;27758;55.900;8.516;2023-07-13T01:49:26;10.60;;;4.68;;
42098;SDS011;27758;55.900;8.516;2023-07-13T01:51:52;18.80;;;5.43;;
42098;SDS011;27758;55.900;8.516;2023-07-13T01:54:17;16.20;;;4.90;;
42098;SDS011;27758;55.900;8.516;2023-07-13T01:56:43;13.68;;;4.55;;
42098;SDS011;27758;55.900;8.516;2023-07-13T01:59:09;19.10;;;5.03;;
42098;SDS011;27758;55.900;8.516;2023-07-13T02:01:34;16.27;;;4.53;;
42098;SDS011;27758;55.900;8.516;2023-07-13T02:04:00;11.15;;;3.00;;
42098;SDS011;27758;55.900;8.516;2023-07-13T02:06:26;10.10;;;3.03;;
42098;SDS011;27758;55.900;8.516;2023-07-13T02:08:52;12.68;;;2.80;;
42098;SDS011;27758;55.900;8.516;2023-07-13T02:11:17;9.75;;;2.92;;
42098;SDS011;27758;55.900;8.516;2023-07-13T02:13:43;11.15;;;3.33;;
42098;SDS011;27758;55.900;8.516;2023-07-13T02:16:09;7.63;;;2.53;;
42098;SDS011;27758;55.900;8.516;2023-07-13T02:18:34;10.18;;;2.53;;
42098;SDS011;27758;55.900;8.516;2023-07-13T02:21:00;11.73;;;3.05;;
42098;SDS011;27758;55.900;8.516;2023-07-13T02:23:27;9.80;;;3.05;;
42098;SDS011;27758;55.900;8.516;2023-07-13T02:25:57;9.75;;;2.53;;
42098;SDS011;27758;55.900;8.516;2023-07-13T02:28:23;7.40;;;2.33;;
42098;SDS011;27758;55.900;8.516;2023-07-13T02:30:49;13.60;;;3.75;;
42098;SDS011;27758;55.900;8.516;2023-07-13T02:33:15;14.18;;;3.58;;
42098;SDS011;27758;55.900;8.516;2023-07-13T02:35:41;18.00;;;4.28;;
42098;SDS011;27758;55.900;8.516;2023-07-13T02:38:07;17.33;;;3.70;;
42098;SDS011;27758;55.900;8.516;2023-07-13T02:40:33;10.75;;;3.00;;
42098;SDS011;27758;55.900;8.516;2023-07-13T02:43:00;13.98;;;3.30;;
42098;SDS011;27758;55.900;8.516;2023-07-13T02:45:27;16.42;;;3.63;;
42098;SDS011;27758;55.900;8.516;2023-07-13T02:47:52;22.42;;;4.32;;
42098;SDS011;27758;55.900;8.516;2023-07-13T02:50:18;21.15;;;3.70;;
42098;SDS011;27758;55.900;8.516;2023-07-13T02:52:44;10.18;;;3.05;;
42098;SDS011;27758;55.900;8.516;2023-07-13T02:55:10;19.13;;;3.58;;
42098;SDS011;27758;55.900;8.516;2023-07-13T02:57:35;18.73;;;4.20;;
42098;SDS011;27758;55.900;8.516;2023-07-13T03:00:03;15.00;;;3.65;;
42098;SDS011;27758;55.900;8.516;2023-07-13T03:02:33;17.00;;;4.05;;
42098;SDS011;27758;55.900;8.516;2023-07-13T03:05:03;11.80;;;3.83;;
42098;SDS011;27758;55.900;8.516;2023-07-13T03:07:30;13.43;;;3.20;;
42098;SDS011;27758;55.900;8.516;2023-07-13T03:09:56;18.67;;;3.28;;
42098;SDS011;27758;55.900;8.516;2023-07-13T03:12:23;11.68;;;3.10;;
42098;SDS011;27758;55.900;8.516;2023-07-13T03:14:49;13.05;;;3.22;;
42098;SDS011;27758;55.900;8.516;2023-07-13T03:17:15;10.15;;;3.28;;
42098;SDS011;27758;55.900;8.516;2023-07-13T03:19:41;10.70;;;3.15;;
42098;SDS011;27758;55.900;8.516;2023-07-13T03:22:07;13.15;;;3.20;;
42098;SDS011;27758;55.900;8.516;2023-07-13T03:24:34;11.95;;;3.45;;
42098;SDS011;27758;55.900;8.516;2023-07-13T03:27:01;11.48;;;2.78;;
42098;SDS011;27758;55.900;8.516;2023-07-13T03:29:28;13.05;;;2.97;;
42098;SDS011;27758;55.900;8.516;2023-07-13T03:31:54;11.77;;;3.55;;
42098;SDS011;27758;55.900;8.516;2023-07-13T03:34:19;11.63;;;2.60;;
42098;SDS011;27758;55.900;8.516;2023-07-13T03:36:45;13.18;;;3.10;;
42098;SDS011;27758;55.900;8.516;2023-07-13T03:39:11;11.73;;;3.25;;
42098;SDS011;27758;55.900;8.516;2023-07-13T03:41:37;10.25;;;2.83;;
42098;SDS011;27758;55.900;8.516;2023-07-13T03:44:02;9.73;;;2.75;;
42098;SDS011;27758;55.900;8.516;2023-07-13T03:46:28;14.32;;;3.50;;
42098;SDS011;27758;55.900;8.516;2023-07-13T03:48:54;17.35;;;3.30;;
42098;SDS011;27758;55.900;8.516;2023-07-13T03:51:20;7.60;;;2.70;;
42098;SDS011;27758;55.900;8.516;2023-07-13T03:53:46;12.32;;;2.80;;
42098;SDS011;27758;55.900;8.516;2023-07-13T03:56:15;8.35;;;2.70;;
42098;SDS011;27758;55.900;8.516;2023-07-13T03:58:43;9.75;;;3.30;;
42098;SDS011;27758;55.900;8.516;2023-07-13T04:01:10;12.73;;;3.25;;
42098;SDS011;27758;55.900;8.516;2023-07-13T04:03:37;13.02;;;3.58;;
42098;SDS011;27758;55.900;8.516;2023-07-13T04:06:04;9.38;;;2.55;;
42098;SDS011;27758;55.900;8.516;2023-07-13T04:08:32;10.50;;;3.40;;
42098;SDS011;27758;55.900;8.516;2023-07-13T04:10:59;8.68;;;2.65;;
42098;SDS011;27758;55.900;8.516;2023-07-13T04:13:25;19.75;;;3.72;;
42098;SDS011;27758;55.900;8.516;2023-07-13T04:15:51;11.65;;;2.90;;
42098;SDS011;27758;55.900;8.516;2023-07-13T04:18:18;7.47;;;2.88;;
42098;SDS011;27758;55.900;8.516;2023-07-13T04:20:45;7.70;;;3.20;;
42098;SDS011;27758;55.900;8.516;2023-07-13T04:23:15;12.27;;;3.20;;
42098;SDS011;27758;55.900;8.516;2023-07-13T04:25:48;10.90;;;2.90;;
42098;SDS011;27758;55.900;8.516;2023-07-13T04:28:22;9.73;;;2.63;;
42098;SDS011;27758;55.900;8.516;2023-07-13T04:30:49;11.35;;;3.72;;
42098;SDS011;27758;55.900;8.516;2023-07-13T04:33:15;9.32;;;3.33;;
42098;SDS011;27758;55.900;8.516;2023-07-13T04:35:42;11.65;;;3.53;;
42098;SDS011;27758;55.900;8.516;2023-07-13T04:38:09;10.80;;;3.50;;
42098;SDS011;27758;55.900;8.516;2023-07-13T04:40:36;14.73;;;3.47;;
42098;SDS011;27758;55.900;8.516;2023-07-13T04:43:02;11.55;;;4.40;;
42098;SDS011;27758;55.900;8.516;2023-07-13T04:45:28;13.07;;;3.85;;
42098;SDS011;27758;55.900;8.516;2023-07-13T04:47:56;14.02;;;3.55;;
42098;SDS011;27758;55.900;8.516;2023-07-13T04:50:21;15.25;;;4.15;;
42098;SDS011;27758;55.900;8.516;2023-07-13T04:52:51;12.82;;;4.43;;
42098;SDS011;27758;55.900;8.516;2023-07-13T04:55:17;12.15;;;3.83;;
42098;SDS011;27758;55.900;8.516;2023-07-13T04:57:44;10.55;;;4.10;;
42098;SDS011;27758;55.900;8.516;2023-07-13T05:00:10;8.25;;;3.58;;
42098;SDS011;27758;55.900;8.516;2023-07-13T05:02:37;8.10;;;3.70;;
42098;SDS011;27758;55.900;8.516;2023-07-13T05:05:04;13.45;;;4.70;;
42098;SDS011;27758;55.900;8.516;2023-07-13T05:07:30;8.68;;;3.63;;
42098;SDS011;27758;55.900;8.516;2023-07-13T05:09:58;18.65;;;5.00;;
42098;SDS011;27758;55.900;8.516;2023-07-13T05:12:25;11.20;;;4.40;;
42098;SDS011;27758;55.900;8.516;2023-07-13T05:14:51;14.57;;;4.07;;
42098;SDS011;27758;55.900;8.516;2023-07-13T05:17:17;11.73;;;4.00;;
42098;SDS011;27758;55.900;8.516;2023-07-13T05:19:42;11.88;;;3.08;;
42098;SDS011;27758;55.900;8.516;2023-07-13T05:22:08;13.43;;;3.33;;
42098;SDS011;27758;55.900;8.516;2023-07-13T05:24:34;13.80;;;4.32;;
42098;SDS011;27758;55.900;8.516;2023-07-13T05:26:59;10.30;;;3.10;;
42098;SDS011;27758;55.900;8.516;2023-07-13T05:29:25;11.25;;;3.65;;
42098;SDS011;27758;55.900;8.516;2023-07-13T05:31:51;9.25;;;3.30;;
42098;SDS011;27758;55.900;8.516;2023-07-13T05:34:17;9.23;;;2.90;;
42098;SDS011;27758;55.900;8.516;2023-07-13T05:36:43;18.17;;;4.38;;
42098;SDS011;27758;55.900;8.516;2023-07-13T05:39:08;9.07;;;3.70;;
42098;SDS011;27758;55.900;8.516;2023-07-13T05:41:35;10.77;;;4.03;;
42098;SDS011;27758;55.900;8.516;2023-07-13T05:44:01;16.92;;;4.53;;
42098;SDS011;27758;55.900;8.516;2023-07-13T05:46:26;20.13;;;5.30;;
42098;SDS011;27758;55.900;8.516;2023-07-13T05:48:52;15.13;;;5.32;;
42098;SDS011;27758;55.900;8.516;2023-07-13T05:51:18;13.98;;;5.38;;
42098;SDS011;27758;55.900;8.516;2023-07-13T05:53:44;11.60;;;5.10;;
42098;SDS011;27758;55.900;8.516;2023-07-13T05:56:10;12.75;;;3.97;;
42098;SDS011;27758;55.900;8.516;2023-07-13T05:58:36;16.33;;;3.65;;
42098;SDS011;27758;55.900;8.516;2023-07-13T06:01:06;9.07;;;3.38;;
42098;SDS011;27758;55.900;8.516;2023-07-13T06:03:37;9.25;;;3.05;;
42098;SDS011;27758;55.900;8.516;2023-07-13T06:06:04;7.70;;;3.05;;
42098;SDS011;27758;55.900;8.516;2023-07-13T06:08:30;7.63;;;3.00;;
42098;SDS011;27758;55.900;8.516;2023-07-13T06:11:01;9.23;;;3.20;;
42098;SDS011;27758;55.900;8.516;2023-07-13T06:13:28;11.30;;;3.05;;
42098;SDS011;27758;55.900;8.516;2023-07-13T06:15:53;11.73;;;3.75;;
42098;SDS011;27758;55.900;8.516;2023-07-13T06:18:19;10.68;;;3.47;;
42098;SDS011;27758;55.900;8.516;2023-07-13T06:20:45;18.98;;;4.40;;
42098;SDS011;27758;55.900;8.516;2023-07-13T06:23:10;12.00;;;3.70;;
42098;SDS011;27758;55.900;8.516;2023-07-13T06:25:36;14.60;;;4.22;;
42098;SDS011;27758;55.900;8.516;2023-07-13T06:28:02;12.18;;;3.45;;
42098;SDS011;27758;55.900;8.516;2023-07-13T06:30:27;10.43;;;3.47;;
42098;SDS011;27758;55.900;8.516;2023-07-13T06:32:53;13.95;;;4.38;;
42098;SDS011;27758;55.900;8.516;2023-07-13T06:35:19;13.15;;;4.10;;
42098;SDS011;27758;55.900;8.516;2023-07-13T06:37:45;14.05;;;3.83;;
42098;SDS011;27758;55.900;8.516;2023-07-13T06:40:12;10.52;;;3.97;;
42098;SDS011;27758;55.900;8.516;2023-07-13T06:42:38;9.20;;;3.88;;
42098;SDS011;27758;55.900;8.516;2023-07-13T06:45:03;13.07;;;4.07;;
42098;SDS011;27758;55.900;8.516;2023-07-13T06:47:30;14.40;;;4.20;;
42098;SDS011;27758;55.900;8.516;2023-07-13T06:49:57;16.42;;;3.33;;
42098;SDS011;27758;55.900;8.516;2023-07-13T06:52:23;16.85;;;4.40;;
42098;SDS011;27758;55.900;8.516;2023-07-13T06:54:48;11.15;;;3.67;;
42098;SDS011;27758;55.900;8.516;2023-07-13T06:57:14;13.73;;;4.22;;
42098;SDS011;27758;55.900;8.516;2023-07-13T06:59:39;14.50;;;4.50;;
42098;SDS011;27758;55.900;8.516;2023-07-13T07:02:05;14.75;;;5.03;;
42098;SDS011;27758;55.900;8.516;2023-07-13T07:04:31;13.77;;;3.70;;
42098;SDS011;27758;55.900;8.516;2023-07-13T07:06:57;12.68;;;3.83;;
42098;SDS011;27758;55.900;8.516;2023-07-13T07:09:23;8.88;;;3.00;;
42098;SDS011;27758;55.900;8.516;2023-07-13T07:11:49;12.85;;;2.95;;
42098;SDS011;27758;55.900;8.516;2023-07-13T07:14:15;8.55;;;2.67;;
42098;SDS011;27758;55.900;8.516;2023-07-13T07:16:40;12.75;;;3.42;;
42098;SDS011;27758;55.900;8.516;2023-07-13T07:19:06;10.40;;;3.30;;
42098;SDS011;27758;55.900;8.516;2023-07-13T07:21:32;10.25;;;3.53;;
42098;SDS011;27758;55.900;8.516;2023-07-13T07:23:57;14.20;;;3.22;;
42098;SDS011;27758;55.900;8.516;2023-07-13T07:26:25;11.75;;;3.03;;
42098;SDS011;27758;55.900;8.516;2023-07-13T07:28:50;13.43;;;3.25;;
42098;SDS011;27758;55.900;8.516;2023-07-13T07:31:16;12.98;;;3.25;;
42098;SDS011;27758;55.900;8.516;2023-07-13T07:33:42;16.40;;;3.38;;
42098;SDS011;27758;55.900;8.516;2023-07-13T07:36:08;14.07;;;2.80;;
42098;SDS011;27758;55.900;8.516;2023-07-13T07:38:34;9.00;;;2.97;;
42098;SDS011;27758;55.900;8.516;2023-07-13T07:41:02;8.38;;;2.65;;
42098;SDS011;27758;55.900;8.516;2023-07-13T07:43:29;14.15;;;3.17;;
42098;SDS011;27758;55.900;8.516;2023-07-13T07:45:56;12.60;;;2.33;;
42098;SDS011;27758;55.900;8.516;2023-07-13T07:48:22;10.15;;;2.72;;
42098;SDS011;27758;55.900;8.516;2023-07-13T07:50:47;11.18;;;3.15;;
42098;SDS011;27758;55.900;8.516;2023-07-13T07:53:13;8.48;;;2.47;;
42098;SDS011;27758;55.900;8.516;2023-07-13T07:55:39;9.23;;;2.28;;
42098;SDS011;27758;55.900;8.516;2023-07-13T07:58:05;6.20;;;2.22;;
42098;SDS011;27758;55.900;8.516;2023-07-13T08:00:31;6.63;;;2.08;;
42098;SDS011;27758;55.900;8.516;2023-07-13T08:02:58;8.43;;;2.03;;
42098;SDS011;27758;55.900;8.516;2023-07-13T08:05:24;7.90;;;2.88;;
42098;SDS011;27758;55.900;8.516;2023-07-13T08:07:50;6.15;;;1.70;;
42098;SDS011;27758;55.900;8.516;2023-07-13T08:10:16;9.30;;;2.17;;
42098;SDS011;27758;55.900;8.516;2023-07-13T08:12:42;10.07;;;2.40;;
42098;SDS011;27758;55.900;8.516;2023-07-13T08:15:09;8.85;;;2.25;;
42098;SDS011;27758;55.900;8.516;2023-07-13T08:17:37;6.18;;;2.22;;
42098;SDS011;27758;55.900;8.516;2023-07-13T08:20:02;8.85;;;2.63;;
42098;SDS011;27758;55.900;8.516;2023-07-13T08:22:29;7.78;;;2.50;;
42098;SDS011;27758;55.900;8.516;2023-07-13T08:24:56;13.77;;;2.63;;
42098;SDS011;27758;55.900;8.516;2023-07-13T08:27:22;8.70;;;2.58;;
42098;SDS011;27758;55.900;8.516;2023-07-13T08:29:49;6.07;;;2.00;;
42098;SDS011;27758;55.900;8.516;2023-07-13T08:32:15;8.10;;;2.20;;
42098;SDS011;27758;55.900;8.516;2023-07-13T08:34:42;9.07;;;2.30;;
42098;SDS011;27758;55.900;8.516;2023-07-13T08:37:07;8.10;;;2.30;;
42098;SDS011;27758;55.900;8.516;2023-07-13T08:39:34;8.13;;;2.03;;
42098;SDS011;27758;55.900;8.516;2023-07-13T08:42:05;5.85;;;1.70;;
42098;SDS011;27758;55.900;8.516;2023-07-13T08:47:44;10.65;;;2.40;;
42098;SDS011;27758;55.900;8.516;2023-07-13T08:50:14;10.82;;;2.22;;
42098;SDS011;27758;55.900;8.516;2023-07-13T08:52:43;7.63;;;2.17;;
42098;SDS011;27758;55.900;8.516;2023-07-13T08:55:16;9.98;;;2.75;;
42098;SDS011;27758;55.900;8.516;2023-07-13T08:57:48;10.45;;;2.35;;
42098;SDS011;27758;55.900;8.516;2023-07-13T09:00:19;8.35;;;2.25;;
42098;SDS011;27758;55.900;8.516;2023-07-13T09:02:51;6.72;;;1.98;;
42098;SDS011;27758;55.900;8.516;2023-07-13T09:05:31;9.98;;;2.05;;
42098;SDS011;27758;55.900;8.516;2023-07-13T09:10:27;6.80;;;1.60;;
42098;SDS011;27758;55.900;8.516;2023-07-13T09:15:37;7.35;;;2.00;;
42098;SDS011;27758;55.900;8.516;2023-07-13T09:20:57;8.95;;;2.50;;
42098;SDS011;27758;55.900;8.516;2023-07-13T09:23:28;6.32;;;2.00;;
42098;SDS011;27758;55.900;8.516;2023-07-13T09:26:03;8.93;;;1.88;;
42098;SDS011;27758;55.900;8.516;2023-07-13T09:28:38;9.52;;;1.77;;
42098;SDS011;27758;55.900;8.516;2023-07-13T09:31:09;5.60;;;2.00;;
42098;SDS011;27758;55.900;8.516;2023-07-13T09:33:39;10.13;;;2.30;;
42098;SDS011;27758;55.900;8.516;2023-07-13T09:36:18;6.32;;;2.10;;
42098;SDS011;27758;55.900;8.516;2023-07-13T09:38:45;5.65;;;1.70;;
42098;SDS011;27758;55.900;8.516;2023-07-13T09:44:12;14.18;;;3.45;;
42098;SDS011;27758;55.900;8.516;2023-07-13T09:46:44;10.98;;;2.40;;
42098;SDS011;27758;55.900;8.516;2023-07-13T09:49:11;9.10;;;2.28;;
42098;SDS011;27758;55.900;8.516;2023-07-13T09:51:39;12.63;;;2.42;;
42098;SDS011;27758;55.900;8.516;2023-07-13T09:54:20;6.63;;;2.10;;
42098;SDS011;27758;55.900;8.516;2023-07-13T09:56:53;11.23;;;2.88;;
42098;SDS011;27758;55.900;8.516;2023-07-13T09:59:24;8.50;;;2.20;;
42098;SDS011;27758;55.900;8.516;2023-07-13T10:01:53;11.35;;;2.85;;
42098;SDS011;27758;55.900;8.516;2023-07-13T10:04:20;10.73;;;2.63;;
42098;SDS011;27758;55.900;8.516;2023-07-13T10:06:52;6.20;;;2.00;;
42098;SDS011;27758;55.900;8.516;2023-07-13T10:09:34;7.97;;;2.42;;
42098;SDS011;27758;55.900;8.516;2023-07-13T10:12:00;13.18;;;2.65;;
42098;SDS011;27758;55.900;8.516;2023-07-13T10:14:26;7.97;;;2.55;;
42098;SDS011;27758;55.900;8.516;2023-07-13T10:16:59;8.00;;;2.83;;
42098;SDS011;27758;55.900;8.516;2023-07-13T10:19:29;9.57;;;2.40;;
42098;SDS011;27758;55.900;8.516;2023-07-13T10:24:27;7.63;;;2.35;;
42098;SDS011;27758;55.900;8.516;2023-07-13T10:29:35;11.85;;;3.15;;
42098;SDS011;27758;55.900;8.516;2023-07-13T10:32:12;7.30;;;2.40;;
42098;SDS011;27758;55.900;8.516;2023-07-13T10:34:41;5.30;;;1.83;;
42098;SDS011;27758;55.900;8.516;2023-07-13T10:37:15;11.70;;;2.83;;
42098;SDS011;27758;55.900;8.516;2023-07-13T10:39:46;9.40;;;2.65;;
42098;SDS011;27758;55.900;8.516;2023-07-13T10:42:14;8.68;;;2.17;;
42098;SDS011;27758;55.900;8.516;2023-07-13T10:44:50;13.18;;;2.85;;
42098;SDS011;27758;55.900;8.516;2023-07-13T10:47:16;8.32;;;3.00;;
42098;SDS011;27758;55.900;8.516;2023-07-13T10:49:43;6.30;;;2.35;;
42098;SDS011;27758;55.900;8.516;2023-07-13T10:55:34;9.43;;;2.67;;
42098;SDS011;27758;55.900;8.516;2023-07-13T11:00:49;28.50;;;9.57;;
42098;SDS011;27758;55.900;8.516;2023-07-13T11:03:22;8.32;;;2.33;;
42098;SDS011;27758;55.900;8.516;2023-07-13T11:06:03;8.55;;;2.28;;
42098;SDS011;27758;55.900;8.516;2023-07-13T11:08:35;7.68;;;2.85;;
42098;SDS011;27758;55.900;8.516;2023-07-13T11:11:03;10.02;;;2.55;;
42098;SDS011;27758;55.900;8.516;2023-07-13T11:19:08;5.90;;;1.90;;
42098;SDS011;27758;55.900;8.516;2023-07-13T11:22:01;14.40;;;2.20;;
42098;SDS011;27758;55.900;8.516;2023-07-13T11:24:28;5.30;;;1.63;;
42098;SDS011;27758;55.900;8.516;2023-07-13T11:27:33;4.80;;;1.52;;
42098;SDS011;27758;55.900;8.516;2023-07-13T11:35:42;6.40;;;1.60;;
42098;SDS011;27758;55.900;8.516;2023-07-13T11:38:16;7.57;;;2.15;;
42098;SDS011;27758;55.900;8.516;2023-07-13T11:40:47;6.32;;;1.90;;
42098;SDS011;27758;55.900;8.516;2023-07-13T11:43:15;9.75;;;1.67;;
42098;SDS011;27758;55.900;8.516;2023-07-13T11:45:42;7.65;;;2.35;;
42098;SDS011;27758;55.900;8.516;2023-07-13T11:48:18;4.70;;;1.52;;
42098;SDS011;27758;55.900;8.516;2023-07-13T11:50:50;6.75;;;1.40;;
42098;SDS011;27758;55.900;8.516;2023-07-13T11:53:18;7.93;;;1.83;;
42098;SDS011;27758;55.900;8.516;2023-07-13T11:55:44;6.03;;;1.63;;
42098;SDS011;27758;55.900;8.516;2023-07-13T11:58:18;5.60;;;1.45;;
42098;SDS011;27758;55.900;8.516;2023-07-13T12:00:50;6.22;;;1.60;;
42098;SDS011;27758;55.900;8.516;2023-07-13T12:03:20;5.20;;;1.52;;
42098;SDS011;27758;55.900;8.516;2023-07-13T12:08:28;8.23;;;1.88;;
42098;SDS011;27758;55.900;8.516;2023-07-13T12:11:03;4.82;;;1.60;;
42098;SDS011;27758;55.900;8.516;2023-07-13T12:13:39;6.78;;;1.40;;
42098;SDS011;27758;55.900;8.516;2023-07-13T12:16:15;7.80;;;1.80;;
42098;SDS011;27758;55.900;8.516;2023-07-13T12:18:48;5.13;;;1.30;;
42098;SDS011;27758;55.900;8.516;2023-07-13T12:21:16;2.97;;;1.10;;
42098;SDS011;27758;55.900;8.516;2023-07-13T12:23:44;2.55;;;0.82;;
42098;SDS011;27758;55.900;8.516;2023-07-13T12:26:14;3.20;;;1.10;;
42098;SDS011;27758;55.900;8.516;2023-07-13T12:28:48;4.72;;;1.00;;
42098;SDS011;27758;55.900;8.516;2023-07-13T12:31:31;1.58;;;0.60;;
42098;SDS011;27758;55.900;8.516;2023-07-13T12:34:09;2.05;;;0.68;;
42098;SDS011;27758;55.900;8.516;2023-07-13T12:36:38;2.30;;;0.70;;
42098;SDS011;27758;55.900;8.516;2023-07-13T12:39:25;4.85;;;0.63;;
42098;SDS011;27758;55.900;8.516;2023-07-13T12:42:16;3.80;;;1.10;;
42098;SDS011;27758;55.900;8.516;2023-07-13T12:44:53;4.53;;;0.82;;
42098;SDS011;27758;55.900;8.516;2023-07-13T12:47:22;1.55;;;0.90;;
42098;SDS011;27758;55.900;8.516;2023-07-13T12:49:59;3.35;;;0.60;;
42098;SDS011;27758;55.900;8.516;2023-07-13T12:52:34;2.75;;;0.50;;
42098;SDS011;27758;55.900;8.516;2023-07-13T12:55:39;3.72;;;0.82;;
42098;SDS011;27758;55.900;8.516;2023-07-13T12:57:57;1.45;;;0.65;;
42098;SDS011;27758;55.900;8.516;2023-07-13T13:00:32;4.40;;;0.93;;
42098;SDS011;27758;55.900;8.516;2023-07-13T13:03:04;2.92;;;0.80;;
42098;SDS011;27758;55.900;8.516;2023-07-13T13:05:56;3.75;;;0.90;;
42098;SDS011;27758;55.900;8.516;2023-07-13T13:08:24;2.42;;;0.75;;
42098;SDS011;27758;55.900;8.516;2023-07-13T13:10:50;5.57;;;1.10;;
42098;SDS011;27758;55.900;8.516;2023-07-13T13:13:16;2.05;;;1.25;;
42098;SDS011;27758;55.900;8.516;2023-07-13T13:15:41;2.47;;;1.10;;
42098;SDS011;27758;55.900;8.516;2023-07-13T13:18:17;2.90;;;1.30;;
42098;SDS011;27758;55.900;8.516;2023-07-13T13:20:44;4.07;;;1.27;;
42098;SDS011;27758;55.900;8.516;2023-07-13T13:23:15;1.90;;;0.80;;
42098;SDS011;27758;55.900;8.516;2023-07-13T13:25:47;2.50;;;1.13;;
42098;SDS011;27758;55.900;8.516;2023-07-13T13:28:18;2.58;;;0.93;;
42098;SDS011;27758;55.900;8.516;2023-07-13T13:30:46;4.10;;;1.23;;
42098;SDS011;27758;55.900;8.516;2023-07-13T13:33:15;5.63;;;1.05;;
42098;SDS011;27758;55.900;8.516;2023-07-13T13:35:42;3.30;;;1.20;;
42098;SDS011;27758;55.900;8.516;2023-07-13T13:38:30;5.18;;;1.35;;
42098;SDS011;27758;55.900;8.516;2023-07-13T13:40:55;3.05;;;1.17;;
42098;SDS011;27758;55.900;8.516;2023-07-13T13:43:24;3.38;;;1.05;;
42098;SDS011;27758;55.900;8.516;2023-07-13T13:45:52;5.70;;;1.50;;
42098;SDS011;27758;55.900;8.516;2023-07-13T13:48:31;4.35;;;1.40;;
42098;SDS011;27758;55.900;8.516;2023-07-13T13:50:58;4.18;;;1.58;;
42098;SDS011;27758;55.900;8.516;2023-07-13T13:53:25;3.85;;;1.38;;
42098;SDS011;27758;55.900;8.516;2023-07-13T13:55:51;3.65;;;1.40;;
42098;SDS011;27758;55.900;8.516;2023-07-13T13:58:20;2.30;;;1.40;;
42098;SDS011;27758;55.900;8.516;2023-07-13T14:00:47;4.10;;;1.60;;
42098;SDS011;27758;55.900;8.516;2023-07-13T14:03:17;3.42;;;1.77;;
42098;SDS011;27758;55.900;8.516;2023-07-13T14:05:45;2.88;;;1.33;;
42098;SDS011;27758;55.900;8.516;2023-07-13T14:08:15;3.90;;;1.25;;
42098;SDS011;27758;55.900;8.516;2023-07-13T14:10:42;5.00;;;2.03;;
42098;SDS011;27758;55.900;8.516;2023-07-13T14:13:19;5.07;;;1.60;;
42098;SDS011;27758;55.900;8.516;2023-07-13T14:15:48;5.22;;;1.92;;
42098;SDS011;27758;55.900;8.516;2023-07-13T14:18:14;6.22;;;1.65;;
42098;SDS011;27758;55.900;8.516;2023-07-13T14:20:43;6.25;;;1.63;;
42098;SDS011;27758;55.900;8.516;2023-07-13T14:23:11;3.97;;;1.30;;
42098;SDS011;27758;55.900;8.516;2023-07-13T14:25:38;5.85;;;1.90;;
42098;SDS011;27758;55.900;8.516;2023-07-13T14:28:10;4.07;;;1.80;;
42098;SDS011;27758;55.900;8.516;2023-07-13T14:30:49;7.28;;;2.20;;
42098;SDS011;27758;55.900;8.516;2023-07-13T14:33:16;5.38;;;1.73;;
42098;SDS011;27758;55.900;8.516;2023-07-13T14:35:42;3.83;;;1.63;;
42098;SDS011;27758;55.900;8.516;2023-07-13T14:38:11;4.95;;;1.88;;
42098;SDS011;27758;55.900;8.516;2023-07-13T14:40:40;3.70;;;1.60;;
42098;SDS011;27758;55.900;8.516;2023-07-13T14:43:09;4.75;;;1.70;;
42098;SDS011;27758;55.900;8.516;2023-07-13T14:45:38;3.00;;;1.92;;
42098;SDS011;27758;55.900;8.516;2023-07-13T14:48:12;5.00;;;2.00;;
42098;SDS011;27758;55.900;8.516;2023-07-13T14:50:44;9.80;;;2.17;;
42098;SDS011;27758;55.900;8.516;2023-07-13T14:53:11;6.15;;;2.30;;
42098;SDS011;27758;55.900;8.516;2023-07-13T14:55:38;4.43;;;1.95;;
42098;SDS011;27758;55.900;8.516;2023-07-13T14:58:04;5.88;;;2.15;;
42098;SDS011;27758;55.900;8.516;2023-07-13T15:00:31;5.20;;;2.10;;
42098;SDS011;27758;55.900;8.516;2023-07-13T15:02:57;7.03;;;2.42;;
42098;SDS011;27758;55.900;8.516;2023-07-13T15:05:25;6.78;;;2.55;;
42098;SDS011;27758;55.900;8.516;2023-07-13T15:07:56;6.70;;;2.45;;
42098;SDS011;27758;55.900;8.516;2023-07-13T15:10:28;4.45;;;1.92;;
42098;SDS011;27758;55.900;8.516;2023-07-13T15:12:59;4.78;;;2.20;;
42098;SDS011;27758;55.900;8.516;2023-07-13T15:15:31;7.63;;;1.90;;
42098;SDS011;27758;55.900;8.516;2023-07-13T15:17:59;5.68;;;2.25;;
42098;SDS011;27758;55.900;8.516;2023-07-13T15:20:32;5.60;;;2.40;;
42098;SDS011;27758;55.900;8.516;2023-07-13T15:23:02;6.40;;;2.33;;
42098;SDS011;27758;55.900;8.516;2023-07-13T15:25:29;5.80;;;2.20;;
42098;SDS011;27758;55.900;8.516;2023-07-13T15:27:58;8.52;;;2.60;;